Airfield :
LOGIN :

Register | Disclaimer

   EN    FR    IT 

 










Legend :    VFR   Marginal VFR   IFR   Intensive IFR   Very Intensive IFR
Visi :
Ceiling :
>= 8 km
>= 3000ft
5 to 8 km
1000 to 3000 ft
1500m to 5 km
500 to 1000 ft
800 to 1500m
200 to 500 ft
< 800m
< 200 ft
Symbols :   Thunderstorms  Fog  Heavy snow  Heavy precipitations  Wind > 20 kt
SIGMETs :     Misc.  Thunderstorms  Icing  Turbulence  Mountain Waves  Volcanic Ashes






- Airport Elevation : 1585 ft
- IATA code : SIR


LSGS - Sion

CURRENT METAR :
  • 280520Z AUTO 04002KT 9999 -RA OVC075 08/04 Q1017

EXPIRED METARs :
  • 280450Z AUTO 09004KT 9999 BKN070 08/04 Q1017
  • 280420Z AUTO VRB01KT 9999 FEW080 BKN090 08/04 Q1017
  • 280350Z AUTO VRB02KT 9999 SCT095 SCT100 08/04 Q1017
  • 280320Z AUTO VRB03KT 9999 BKN120 08/04 Q1016
  • 280250Z AUTO 09005KT 9999 BKN120 08/04 Q1016
  • 280220Z AUTO 09004KT 9999 BKN075 08/04 Q1017

Expired Forecast.



MET'MAP, your aeronautical weather chart ! - Copyright ORBIFLY December 2007 - Disclaimer

ORBIFLY MET'MAP TEAM :

Programming & Development : Alexandra Zaïnal
Concept & original design : Baudouin d'Aumeries
Assistance for programming : Marc-Olivier Méhu
Technical & hardware support : Manuel Goepfert

Contact : metmap@orbifly.com




SOURCES & CREDITS :

   NOAA